sensor_id;sensor_type;location;lat;lon;timestamp;P1;durP1;ratioP1;P2;durP2;ratioP2
67191;SDS011;54120;53.504;49.426;2023-09-07T00:00:44;5.40;;;4.70;;
67191;SDS011;54120;53.504;49.426;2023-09-07T00:03:11;5.47;;;4.88;;
67191;SDS011;54120;53.504;49.426;2023-09-07T00:05:38;5.57;;;5.07;;
67191;SDS011;54120;53.504;49.426;2023-09-07T00:08:04;6.53;;;5.00;;
67191;SDS011;54120;53.504;49.426;2023-09-07T00:10:32;6.10;;;4.70;;
67191;SDS011;54120;53.504;49.426;2023-09-07T00:13:02;6.47;;;5.00;;
67191;SDS011;54120;53.504;49.426;2023-09-07T00:15:29;7.50;;;5.18;;
67191;SDS011;54120;53.504;49.426;2023-09-07T00:18:01;5.20;;;4.70;;
67191;SDS011;54120;53.504;49.426;2023-09-07T00:20:27;7.43;;;5.40;;
67191;SDS011;54120;53.504;49.426;2023-09-07T00:22:53;5.30;;;4.80;;
67191;SDS011;54120;53.504;49.426;2023-09-07T00:25:19;6.72;;;5.05;;
67191;SDS011;54120;53.504;49.426;2023-09-07T00:27:46;5.85;;;4.60;;
67191;SDS011;54120;53.504;49.426;2023-09-07T00:30:12;7.32;;;5.07;;
67191;SDS011;54120;53.504;49.426;2023-09-07T00:32:38;5.75;;;4.65;;
67191;SDS011;54120;53.504;49.426;2023-09-07T00:35:05;5.10;;;4.55;;
67191;SDS011;54120;53.504;49.426;2023-09-07T00:37:33;9.07;;;4.80;;
67191;SDS011;54120;53.504;49.426;2023-09-07T00:39:59;5.30;;;4.80;;
67191;SDS011;54120;53.504;49.426;2023-09-07T00:42:25;7.45;;;5.97;;
67191;SDS011;54120;53.504;49.426;2023-09-07T00:44:51;6.65;;;4.53;;
67191;SDS011;54120;53.504;49.426;2023-09-07T00:47:17;8.13;;;5.00;;
67191;SDS011;54120;53.504;49.426;2023-09-07T00:49:43;7.72;;;5.00;;
67191;SDS011;54120;53.504;49.426;2023-09-07T00:52:10;7.95;;;4.75;;
67191;SDS011;54120;53.504;49.426;2023-09-07T00:54:36;6.00;;;4.65;;
67191;SDS011;54120;53.504;49.426;2023-09-07T00:57:04;6.32;;;4.53;;
67191;SDS011;54120;53.504;49.426;2023-09-07T00:59:31;6.70;;;4.70;;
67191;SDS011;54120;53.504;49.426;2023-09-07T01:01:58;5.57;;;4.72;;
67191;SDS011;54120;53.504;49.426;2023-09-07T01:04:24;7.88;;;4.22;;
67191;SDS011;54120;53.504;49.426;2023-09-07T01:06:52;7.05;;;4.38;;
67191;SDS011;54120;53.504;49.426;2023-09-07T01:09:26;6.13;;;4.40;;
67191;SDS011;54120;53.504;49.426;2023-09-07T01:11:56;6.28;;;4.20;;
67191;SDS011;54120;53.504;49.426;2023-09-07T01:14:22;5.15;;;4.15;;
67191;SDS011;54120;53.504;49.426;2023-09-07T01:16:48;5.35;;;4.30;;
67191;SDS011;54120;53.504;49.426;2023-09-07T01:19:16;7.38;;;3.88;;
67191;SDS011;54120;53.504;49.426;2023-09-07T01:21:42;9.75;;;4.38;;
67191;SDS011;54120;53.504;49.426;2023-09-07T01:24:10;7.10;;;4.25;;
67191;SDS011;54120;53.504;49.426;2023-09-07T01:26:38;6.35;;;4.35;;
67191;SDS011;54120;53.504;49.426;2023-09-07T01:29:04;13.73;;;4.57;;
67191;SDS011;54120;53.504;49.426;2023-09-07T01:31:38;6.20;;;4.07;;
67191;SDS011;54120;53.504;49.426;2023-09-07T01:34:05;9.27;;;4.68;;
67191;SDS011;54120;53.504;49.426;2023-09-07T01:36:32;7.05;;;4.82;;
67191;SDS011;54120;53.504;49.426;2023-09-07T01:38:59;11.93;;;5.05;;
67191;SDS011;54120;53.504;49.426;2023-09-07T01:41:26;10.20;;;5.00;;
67191;SDS011;54120;53.504;49.426;2023-09-07T01:43:52;10.45;;;5.20;;
67191;SDS011;54120;53.504;49.426;2023-09-07T01:46:19;8.50;;;5.10;;
67191;SDS011;54120;53.504;49.426;2023-09-07T01:48:45;10.05;;;5.13;;
67191;SDS011;54120;53.504;49.426;2023-09-07T01:51:11;11.52;;;4.90;;
67191;SDS011;54120;53.504;49.426;2023-09-07T01:53:37;12.43;;;4.72;;
67191;SDS011;54120;53.504;49.426;2023-09-07T01:56:03;6.38;;;4.00;;
67191;SDS011;54120;53.504;49.426;2023-09-07T01:58:30;6.18;;;4.38;;
67191;SDS011;54120;53.504;49.426;2023-09-07T02:00:57;9.13;;;4.28;;
67191;SDS011;54120;53.504;49.426;2023-09-07T02:03:24;7.47;;;4.07;;
67191;SDS011;54120;53.504;49.426;2023-09-07T02:05:54;6.05;;;3.60;;
67191;SDS011;54120;53.504;49.426;2023-09-07T02:08:21;4.93;;;3.85;;
67191;SDS011;54120;53.504;49.426;2023-09-07T02:10:47;7.40;;;4.20;;
67191;SDS011;54120;53.504;49.426;2023-09-07T02:13:14;6.35;;;3.92;;
67191;SDS011;54120;53.504;49.426;2023-09-07T02:15:41;8.93;;;3.90;;
67191;SDS011;54120;53.504;49.426;2023-09-07T02:18:07;5.00;;;3.72;;
67191;SDS011;54120;53.504;49.426;2023-09-07T02:20:33;4.63;;;4.10;;
67191;SDS011;54120;53.504;49.426;2023-09-07T02:22:59;8.95;;;4.47;;
67191;SDS011;54120;53.504;49.426;2023-09-07T02:25:26;5.18;;;4.13;;
67191;SDS011;54120;53.504;49.426;2023-09-07T02:27:53;5.30;;;4.07;;
67191;SDS011;54120;53.504;49.426;2023-09-07T02:30:19;6.00;;;4.35;;
67191;SDS011;54120;53.504;49.426;2023-09-07T02:32:46;7.75;;;4.20;;
67191;SDS011;54120;53.504;49.426;2023-09-07T02:35:12;5.25;;;3.40;;
67191;SDS011;54120;53.504;49.426;2023-09-07T02:37:38;8.65;;;4.53;;
67191;SDS011;54120;53.504;49.426;2023-09-07T02:40:04;5.43;;;4.57;;
67191;SDS011;54120;53.504;49.426;2023-09-07T02:42:34;6.20;;;3.95;;
67191;SDS011;54120;53.504;49.426;2023-09-07T02:45:00;5.15;;;4.30;;
67191;SDS011;54120;53.504;49.426;2023-09-07T02:47:26;8.52;;;4.20;;
67191;SDS011;54120;53.504;49.426;2023-09-07T02:49:53;6.43;;;4.05;;
67191;SDS011;54120;53.504;49.426;2023-09-07T02:52:19;4.68;;;4.05;;
67191;SDS011;54120;53.504;49.426;2023-09-07T02:54:45;5.75;;;4.07;;
67191;SDS011;54120;53.504;49.426;2023-09-07T02:57:11;4.93;;;3.83;;
67191;SDS011;54120;53.504;49.426;2023-09-07T02:59:38;5.63;;;4.10;;
67191;SDS011;54120;53.504;49.426;2023-09-07T03:02:03;7.35;;;3.88;;
67191;SDS011;54120;53.504;49.426;2023-09-07T03:04:30;6.80;;;3.85;;
67191;SDS011;54120;53.504;49.426;2023-09-07T03:06:56;6.72;;;3.80;;
67191;SDS011;54120;53.504;49.426;2023-09-07T03:09:22;4.95;;;3.70;;
67191;SDS011;54120;53.504;49.426;2023-09-07T03:11:48;3.17;;;2.88;;
67191;SDS011;54120;53.504;49.426;2023-09-07T03:14:14;4.07;;;3.20;;
67191;SDS011;54120;53.504;49.426;2023-09-07T03:16:41;3.55;;;3.17;;
67191;SDS011;54120;53.504;49.426;2023-09-07T03:19:07;3.83;;;3.20;;
67191;SDS011;54120;53.504;49.426;2023-09-07T03:21:33;3.47;;;2.80;;
67191;SDS011;54120;53.504;49.426;2023-09-07T03:23:59;2.83;;;2.53;;
67191;SDS011;54120;53.504;49.426;2023-09-07T03:26:25;3.95;;;2.80;;
67191;SDS011;54120;53.504;49.426;2023-09-07T03:28:52;6.13;;;2.50;;
67191;SDS011;54120;53.504;49.426;2023-09-07T03:31:18;4.05;;;2.10;;
67191;SDS011;54120;53.504;49.426;2023-09-07T03:33:44;2.90;;;2.33;;
67191;SDS011;54120;53.504;49.426;2023-09-07T03:36:11;2.90;;;2.13;;
67191;SDS011;54120;53.504;49.426;2023-09-07T03:38:40;2.85;;;1.80;;
67191;SDS011;54120;53.504;49.426;2023-09-07T03:41:07;1.98;;;1.83;;
67191;SDS011;54120;53.504;49.426;2023-09-07T03:43:33;4.22;;;1.90;;
67191;SDS011;54120;53.504;49.426;2023-09-07T03:45:59;3.55;;;1.95;;
67191;SDS011;54120;53.504;49.426;2023-09-07T03:48:25;3.50;;;2.10;;
67191;SDS011;54120;53.504;49.426;2023-09-07T03:50:51;4.05;;;2.10;;
67191;SDS011;54120;53.504;49.426;2023-09-07T03:53:17;4.07;;;2.10;;
67191;SDS011;54120;53.504;49.426;2023-09-07T03:55:44;2.45;;;1.95;;
67191;SDS011;54120;53.504;49.426;2023-09-07T03:58:11;2.58;;;1.88;;
67191;SDS011;54120;53.504;49.426;2023-09-07T04:00:40;3.65;;;2.08;;
67191;SDS011;54120;53.504;49.426;2023-09-07T04:03:07;2.85;;;2.00;;
67191;SDS011;54120;53.504;49.426;2023-09-07T04:05:34;2.60;;;1.70;;
67191;SDS011;54120;53.504;49.426;2023-09-07T04:08:03;2.40;;;1.92;;
67191;SDS011;54120;53.504;49.426;2023-09-07T04:10:29;2.45;;;1.90;;
67191;SDS011;54120;53.504;49.426;2023-09-07T04:12:55;4.03;;;2.03;;
67191;SDS011;54120;53.504;49.426;2023-09-07T04:15:21;1.77;;;1.67;;
67191;SDS011;54120;53.504;49.426;2023-09-07T04:17:49;2.70;;;1.60;;
67191;SDS011;54120;53.504;49.426;2023-09-07T04:20:15;2.85;;;1.50;;
67191;SDS011;54120;53.504;49.426;2023-09-07T04:22:43;1.85;;;1.60;;
67191;SDS011;54120;53.504;49.426;2023-09-07T04:25:09;1.73;;;1.63;;
67191;SDS011;54120;53.504;49.426;2023-09-07T04:27:35;2.22;;;1.70;;
67191;SDS011;54120;53.504;49.426;2023-09-07T04:30:01;3.08;;;1.77;;
67191;SDS011;54120;53.504;49.426;2023-09-07T04:32:27;2.00;;;1.73;;
67191;SDS011;54120;53.504;49.426;2023-09-07T04:34:56;2.13;;;1.70;;
67191;SDS011;54120;53.504;49.426;2023-09-07T04:37:24;3.70;;;1.80;;
67191;SDS011;54120;53.504;49.426;2023-09-07T04:39:51;2.60;;;1.40;;
67191;SDS011;54120;53.504;49.426;2023-09-07T04:42:20;2.75;;;1.60;;
67191;SDS011;54120;53.504;49.426;2023-09-07T04:44:47;2.00;;;1.45;;
67191;SDS011;54120;53.504;49.426;2023-09-07T04:47:14;5.07;;;2.35;;
67191;SDS011;54120;53.504;49.426;2023-09-07T04:49:48;3.47;;;1.40;;
67191;SDS011;54120;53.504;49.426;2023-09-07T04:52:16;1.27;;;1.25;;
67191;SDS011;54120;53.504;49.426;2023-09-07T04:54:43;3.45;;;1.70;;
67191;SDS011;54120;53.504;49.426;2023-09-07T04:57:10;2.08;;;1.50;;
67191;SDS011;54120;53.504;49.426;2023-09-07T04:59:36;1.92;;;1.70;;
67191;SDS011;54120;53.504;49.426;2023-09-07T05:02:03;1.35;;;1.30;;
67191;SDS011;54120;53.504;49.426;2023-09-07T05:04:29;2.08;;;1.83;;
67191;SDS011;54120;53.504;49.426;2023-09-07T05:06:56;1.58;;;1.48;;
67191;SDS011;54120;53.504;49.426;2023-09-07T05:09:22;1.88;;;1.40;;
67191;SDS011;54120;53.504;49.426;2023-09-07T05:11:50;4.30;;;1.80;;
67191;SDS011;54120;53.504;49.426;2023-09-07T05:14:16;1.73;;;1.33;;
67191;SDS011;54120;53.504;49.426;2023-09-07T05:16:42;1.50;;;1.30;;
67191;SDS011;54120;53.504;49.426;2023-09-07T05:19:09;1.60;;;1.40;;
67191;SDS011;54120;53.504;49.426;2023-09-07T05:21:36;2.30;;;1.73;;
67191;SDS011;54120;53.504;49.426;2023-09-07T05:24:02;2.92;;;1.92;;
67191;SDS011;54120;53.504;49.426;2023-09-07T05:26:29;2.28;;;1.50;;
67191;SDS011;54120;53.504;49.426;2023-09-07T05:28:55;4.25;;;1.35;;
67191;SDS011;54120;53.504;49.426;2023-09-07T05:31:21;5.47;;;1.50;;
67191;SDS011;54120;53.504;49.426;2023-09-07T05:33:48;3.78;;;1.55;;
67191;SDS011;54120;53.504;49.426;2023-09-07T05:36:14;6.60;;;1.40;;
67191;SDS011;54120;53.504;49.426;2023-09-07T05:38:40;2.92;;;1.38;;
67191;SDS011;54120;53.504;49.426;2023-09-07T05:41:07;2.42;;;1.50;;
67191;SDS011;54120;53.504;49.426;2023-09-07T05:43:34;2.25;;;1.50;;
67191;SDS011;54120;53.504;49.426;2023-09-07T05:46:01;1.60;;;1.50;;
67191;SDS011;54120;53.504;49.426;2023-09-07T05:48:27;1.88;;;1.17;;
67191;SDS011;54120;53.504;49.426;2023-09-07T05:50:54;2.38;;;1.33;;
67191;SDS011;54120;53.504;49.426;2023-09-07T05:53:20;2.50;;;1.38;;
67191;SDS011;54120;53.504;49.426;2023-09-07T05:55:46;3.10;;;1.25;;
67191;SDS011;54120;53.504;49.426;2023-09-07T05:58:13;1.50;;;1.40;;
67191;SDS011;54120;53.504;49.426;2023-09-07T06:00:40;5.47;;;1.23;;
67191;SDS011;54120;53.504;49.426;2023-09-07T06:03:09;2.72;;;1.40;;
67191;SDS011;54120;53.504;49.426;2023-09-07T06:05:37;6.82;;;2.15;;
67191;SDS011;54120;53.504;49.426;2023-09-07T06:08:04;2.42;;;1.20;;
67191;SDS011;54120;53.504;49.426;2023-09-07T06:10:34;1.50;;;1.30;;
67191;SDS011;54120;53.504;49.426;2023-09-07T06:13:01;4.00;;;1.55;;
67191;SDS011;54120;53.504;49.426;2023-09-07T06:15:29;1.10;;;1.10;;
67191;SDS011;54120;53.504;49.426;2023-09-07T06:17:55;1.30;;;1.10;;
67191;SDS011;54120;53.504;49.426;2023-09-07T06:20:22;1.00;;;1.00;;
67191;SDS011;54120;53.504;49.426;2023-09-07T06:22:48;2.92;;;1.40;;
67191;SDS011;54120;53.504;49.426;2023-09-07T06:25:14;1.33;;;1.23;;
67191;SDS011;54120;53.504;49.426;2023-09-07T06:27:41;3.40;;;1.48;;
67191;SDS011;54120;53.504;49.426;2023-09-07T06:30:07;1.38;;;1.27;;
67191;SDS011;54120;53.504;49.426;2023-09-07T06:32:34;2.33;;;1.40;;
67191;SDS011;54120;53.504;49.426;2023-09-07T06:35:00;2.35;;;1.40;;
67191;SDS011;54120;53.504;49.426;2023-09-07T06:37:27;1.25;;;1.15;;
67191;SDS011;54120;53.504;49.426;2023-09-07T06:39:54;2.22;;;1.40;;
67191;SDS011;54120;53.504;49.426;2023-09-07T06:42:20;1.75;;;1.13;;
67191;SDS011;54120;53.504;49.426;2023-09-07T06:44:46;4.00;;;1.58;;
67191;SDS011;54120;53.504;49.426;2023-09-07T06:47:13;2.08;;;1.20;;
67191;SDS011;54120;53.504;49.426;2023-09-07T06:49:39;3.85;;;1.92;;
67191;SDS011;54120;53.504;49.426;2023-09-07T06:52:06;2.70;;;1.33;;
67191;SDS011;54120;53.504;49.426;2023-09-07T06:54:32;2.03;;;1.10;;
67191;SDS011;54120;53.504;49.426;2023-09-07T06:56:58;2.63;;;1.30;;
67191;SDS011;54120;53.504;49.426;2023-09-07T06:59:26;2.10;;;1.30;;
67191;SDS011;54120;53.504;49.426;2023-09-07T07:01:52;4.72;;;1.23;;
67191;SDS011;54120;53.504;49.426;2023-09-07T07:04:19;1.98;;;1.10;;
67191;SDS011;54120;53.504;49.426;2023-09-07T07:06:45;1.70;;;1.10;;
67191;SDS011;54120;53.504;49.426;2023-09-07T07:09:11;1.85;;;1.30;;
67191;SDS011;54120;53.504;49.426;2023-09-07T07:11:39;4.70;;;1.20;;
67191;SDS011;54120;53.504;49.426;2023-09-07T07:14:06;1.63;;;1.15;;
67191;SDS011;54120;53.504;49.426;2023-09-07T07:16:34;2.28;;;1.25;;
67191;SDS011;54120;53.504;49.426;2023-09-07T07:19:00;1.63;;;1.30;;
67191;SDS011;54120;53.504;49.426;2023-09-07T07:21:26;2.97;;;1.48;;
67191;SDS011;54120;53.504;49.426;2023-09-07T07:23:53;3.65;;;1.48;;
67191;SDS011;54120;53.504;49.426;2023-09-07T07:26:18;2.90;;;1.20;;
67191;SDS011;54120;53.504;49.426;2023-09-07T07:28:45;13.35;;;1.42;;
67191;SDS011;54120;53.504;49.426;2023-09-07T07:31:11;2.20;;;1.45;;
67191;SDS011;54120;53.504;49.426;2023-09-07T07:33:37;8.77;;;3.22;;
67191;SDS011;54120;53.504;49.426;2023-09-07T07:36:03;8.38;;;2.30;;
67191;SDS011;54120;53.504;49.426;2023-09-07T07:38:30;3.25;;;1.30;;
67191;SDS011;54120;53.504;49.426;2023-09-07T07:40:56;4.57;;;1.60;;
67191;SDS011;54120;53.504;49.426;2023-09-07T07:43:22;3.50;;;1.60;;
67191;SDS011;54120;53.504;49.426;2023-09-07T07:45:49;3.10;;;1.40;;
67191;SDS011;54120;53.504;49.426;2023-09-07T07:48:15;2.58;;;1.10;;
67191;SDS011;54120;53.504;49.426;2023-09-07T07:50:41;2.08;;;1.10;;
67191;SDS011;54120;53.504;49.426;2023-09-07T07:53:07;2.10;;;1.27;;
67191;SDS011;54120;53.504;49.426;2023-09-07T07:55:36;4.40;;;1.58;;
67191;SDS011;54120;53.504;49.426;2023-09-07T07:58:07;1.95;;;1.30;;
67191;SDS011;54120;53.504;49.426;2023-09-07T08:00:37;2.00;;;1.38;;
67191;SDS011;54120;53.504;49.426;2023-09-07T08:03:04;3.00;;;1.90;;
67191;SDS011;54120;53.504;49.426;2023-09-07T08:05:32;4.50;;;2.30;;
67191;SDS011;54120;53.504;49.426;2023-09-07T08:07:59;4.03;;;1.58;;
67191;SDS011;54120;53.504;49.426;2023-09-07T08:10:25;2.47;;;1.20;;
67191;SDS011;54120;53.504;49.426;2023-09-07T08:12:55;1.83;;;1.10;;
67191;SDS011;54120;53.504;49.426;2023-09-07T08:15:21;2.45;;;1.35;;
67191;SDS011;54120;53.504;49.426;2023-09-07T08:17:51;1.60;;;1.50;;
67191;SDS011;54120;53.504;49.426;2023-09-07T08:20:17;1.70;;;1.33;;
67191;SDS011;54120;53.504;49.426;2023-09-07T08:22:44;1.73;;;1.23;;
67191;SDS011;54120;53.504;49.426;2023-09-07T08:25:12;3.17;;;1.50;;
67191;SDS011;54120;53.504;49.426;2023-09-07T08:27:39;3.05;;;1.30;;
67191;SDS011;54120;53.504;49.426;2023-09-07T08:30:11;2.28;;;1.42;;
67191;SDS011;54120;53.504;49.426;2023-09-07T08:32:38;2.63;;;1.30;;
67191;SDS011;54120;53.504;49.426;2023-09-07T08:35:04;3.92;;;1.30;;
67191;SDS011;54120;53.504;49.426;2023-09-07T08:37:33;1.38;;;1.17;;
67191;SDS011;54120;53.504;49.426;2023-09-07T08:40:00;1.98;;;1.13;;
67191;SDS011;54120;53.504;49.426;2023-09-07T08:42:27;4.28;;;1.45;;
67191;SDS011;54120;53.504;49.426;2023-09-07T08:44:54;4.68;;;1.17;;
67191;SDS011;54120;53.504;49.426;2023-09-07T08:47:24;11.32;;;1.23;;
67191;SDS011;54120;53.504;49.426;2023-09-07T08:49:51;1.42;;;1.20;;
67191;SDS011;54120;53.504;49.426;2023-09-07T08:52:18;1.73;;;1.10;;
67191;SDS011;54120;53.504;49.426;2023-09-07T08:54:45;2.85;;;1.13;;
67191;SDS011;54120;53.504;49.426;2023-09-07T08:57:12;1.85;;;1.48;;
67191;SDS011;54120;53.504;49.426;2023-09-07T08:59:40;1.60;;;0.93;;
67191;SDS011;54120;53.504;49.426;2023-09-07T09:02:08;5.45;;;2.78;;
67191;SDS011;54120;53.504;49.426;2023-09-07T09:04:36;5.47;;;1.50;;
67191;SDS011;54120;53.504;49.426;2023-09-07T09:07:04;2.00;;;1.10;;
67191;SDS011;54120;53.504;49.426;2023-09-07T09:09:31;1.77;;;1.15;;
67191;SDS011;54120;53.504;49.426;2023-09-07T09:12:10;4.82;;;1.13;;
67191;SDS011;54120;53.504;49.426;2023-09-07T09:14:42;2.70;;;1.48;;
67191;SDS011;54120;53.504;49.426;2023-09-07T09:17:13;4.28;;;1.38;;
67191;SDS011;54120;53.504;49.426;2023-09-07T09:19:40;3.55;;;1.35;;
67191;SDS011;54120;53.504;49.426;2023-09-07T09:22:07;1.65;;;1.05;;
67191;SDS011;54120;53.504;49.426;2023-09-07T09:24:33;1.60;;;1.20;;
67191;SDS011;54120;53.504;49.426;2023-09-07T09:27:00;4.72;;;1.40;;
67191;SDS011;54120;53.504;49.426;2023-09-07T09:29:27;4.88;;;1.50;;
67191;SDS011;54120;53.504;49.426;2023-09-07T09:31:53;5.80;;;1.60;;
67191;SDS011;54120;53.504;49.426;2023-09-07T09:34:20;2.78;;;1.20;;
67191;SDS011;54120;53.504;49.426;2023-09-07T09:36:46;5.90;;;2.50;;
67191;SDS011;54120;53.504;49.426;2023-09-07T09:39:22;3.00;;;1.27;;
67191;SDS011;54120;53.504;49.426;2023-09-07T09:41:52;1.88;;;1.20;;
67191;SDS011;54120;53.504;49.426;2023-09-07T09:44:20;8.43;;;1.45;;
67191;SDS011;54120;53.504;49.426;2023-09-07T09:46:53;4.70;;;1.20;;
67191;SDS011;54120;53.504;49.426;2023-09-07T09:49:21;1.83;;;1.50;;
67191;SDS011;54120;53.504;49.426;2023-09-07T09:51:51;3.03;;;1.33;;
67191;SDS011;54120;53.504;49.426;2023-09-07T09:54:17;2.30;;;1.20;;
67191;SDS011;54120;53.504;49.426;2023-09-07T09:56:44;3.88;;;1.23;;
67191;SDS011;54120;53.504;49.426;2023-09-07T09:59:11;8.65;;;1.60;;
67191;SDS011;54120;53.504;49.426;2023-09-07T10:01:46;2.42;;;1.50;;
67191;SDS011;54120;53.504;49.426;2023-09-07T10:04:17;5.07;;;1.88;;
67191;SDS011;54120;53.504;49.426;2023-09-07T10:06:54;3.72;;;1.08;;
67191;SDS011;54120;53.504;49.426;2023-09-07T10:09:22;3.55;;;1.45;;
67191;SDS011;54120;53.504;49.426;2023-09-07T10:11:51;4.78;;;1.85;;
67191;SDS011;54120;53.504;49.426;2023-09-07T10:14:19;4.03;;;1.23;;
67191;SDS011;54120;53.504;49.426;2023-09-07T10:19:23;5.65;;;2.17;;
67191;SDS011;54120;53.504;49.426;2023-09-07T10:21:54;8.60;;;2.70;;
67191;SDS011;54120;53.504;49.426;2023-09-07T10:24:25;10.82;;;3.05;;
67191;SDS011;54120;53.504;49.426;2023-09-07T10:26:56;4.43;;;1.70;;
67191;SDS011;54120;53.504;49.426;2023-09-07T10:29:23;5.47;;;2.17;;
67191;SDS011;54120;53.504;49.426;2023-09-07T10:31:50;3.30;;;1.90;;
67191;SDS011;54120;53.504;49.426;2023-09-07T10:34:17;3.45;;;1.50;;
67191;SDS011;54120;53.504;49.426;2023-09-07T10:36:44;5.85;;;1.52;;
67191;SDS011;54120;53.504;49.426;2023-09-07T10:39:11;3.70;;;1.90;;
67191;SDS011;54120;53.504;49.426;2023-09-07T10:41:39;11.75;;;4.15;;
67191;SDS011;54120;53.504;49.426;2023-09-07T10:44:08;8.38;;;2.90;;
67191;SDS011;54120;53.504;49.426;2023-09-07T10:46:37;8.18;;;3.50;;
67191;SDS011;54120;53.504;49.426;2023-09-07T10:49:06;6.28;;;1.90;;
67191;SDS011;54120;53.504;49.426;2023-09-07T10:51:46;7.78;;;2.00;;
67191;SDS011;54120;53.504;49.426;2023-09-07T10:54:14;4.38;;;1.88;;
67191;SDS011;54120;53.504;49.426;2023-09-07T10:56:45;6.88;;;1.63;;
67191;SDS011;54120;53.504;49.426;2023-09-07T10:59:13;6.75;;;1.42;;
67191;SDS011;54120;53.504;49.426;2023-09-07T11:01:39;5.18;;;1.50;;
67191;SDS011;54120;53.504;49.426;2023-09-07T11:04:06;8.63;;;1.73;;
67191;SDS011;54120;53.504;49.426;2023-09-07T11:06:34;6.65;;;1.48;;
67191;SDS011;54120;53.504;49.426;2023-09-07T11:09:01;9.25;;;2.95;;
67191;SDS011;54120;53.504;49.426;2023-09-07T11:11:34;4.88;;;1.58;;
67191;SDS011;54120;53.504;49.426;2023-09-07T11:14:02;4.25;;;1.20;;
67191;SDS011;54120;53.504;49.426;2023-09-07T11:16:30;2.63;;;1.38;;
67191;SDS011;54120;53.504;49.426;2023-09-07T11:19:02;3.13;;;1.45;;
67191;SDS011;54120;53.504;49.426;2023-09-07T11:21:31;3.58;;;1.30;;
67191;SDS011;54120;53.504;49.426;2023-09-07T11:24:01;3.00;;;1.48;;
67191;SDS011;54120;53.504;49.426;2023-09-07T11:26:40;6.10;;;1.30;;
67191;SDS011;54120;53.504;49.426;2023-09-07T11:29:14;4.82;;;1.60;;
67191;SDS011;54120;53.504;49.426;2023-09-07T11:31:44;2.58;;;1.00;;
67191;SDS011;54120;53.504;49.426;2023-09-07T11:34:12;2.67;;;1.58;;
67191;SDS011;54120;53.504;49.426;2023-09-07T11:36:39;2.35;;;1.30;;
67191;SDS011;54120;53.504;49.426;2023-09-07T11:39:06;3.22;;;1.33;;
67191;SDS011;54120;53.504;49.426;2023-09-07T11:41:42;2.00;;;1.10;;
67191;SDS011;54120;53.504;49.426;2023-09-07T11:44:09;2.00;;;1.17;;
67191;SDS011;54120;53.504;49.426;2023-09-07T11:46:36;1.85;;;1.25;;
67191;SDS011;54120;53.504;49.426;2023-09-07T11:49:03;5.57;;;1.70;;
67191;SDS011;54120;53.504;49.426;2023-09-07T11:51:35;2.00;;;1.08;;
67191;SDS011;54120;53.504;49.426;2023-09-07T11:54:02;2.65;;;1.50;;
67191;SDS011;54120;53.504;49.426;2023-09-07T11:56:28;8.32;;;1.50;;
67191;SDS011;54120;53.504;49.426;2023-09-07T11:58:55;2.20;;;1.23;;
67191;SDS011;54120;53.504;49.426;2023-09-07T12:01:22;6.18;;;1.30;;
67191;SDS011;54120;53.504;49.426;2023-09-07T12:03:48;3.58;;;1.50;;
67191;SDS011;54120;53.504;49.426;2023-09-07T12:06:15;5.70;;;1.45;;
67191;SDS011;54120;53.504;49.426;2023-09-07T12:08:42;5.78;;;1.60;;
67191;SDS011;54120;53.504;49.426;2023-09-07T12:11:23;2.55;;;1.40;;
67191;SDS011;54120;53.504;49.426;2023-09-07T12:13:49;3.25;;;1.20;;
67191;SDS011;54120;53.504;49.426;2023-09-07T12:16:16;2.92;;;1.10;;
67191;SDS011;54120;53.504;49.426;2023-09-07T12:18:42;1.75;;;1.20;;
67191;SDS011;54120;53.504;49.426;2023-09-07T12:21:08;2.78;;;1.10;;
67191;SDS011;54120;53.504;49.426;2023-09-07T12:23:35;2.78;;;1.17;;
67191;SDS011;54120;53.504;49.426;2023-09-07T12:26:01;2.47;;;1.20;;
67191;SDS011;54120;53.504;49.426;2023-09-07T12:28:30;1.20;;;1.10;;
67191;SDS011;54120;53.504;49.426;2023-09-07T12:30:57;1.58;;;1.05;;
67191;SDS011;54120;53.504;49.426;2023-09-07T12:33:26;1.73;;;1.23;;
67191;SDS011;54120;53.504;49.426;2023-09-07T12:35:55;1.52;;;1.00;;
67191;SDS011;54120;53.504;49.426;2023-09-07T12:38:22;1.40;;;1.30;;
67191;SDS011;54120;53.504;49.426;2023-09-07T12:40:52;3.78;;;1.10;;
67191;SDS011;54120;53.504;49.426;2023-09-07T12:43:19;3.38;;;1.20;;
67191;SDS011;54120;53.504;49.426;2023-09-07T12:45:46;1.60;;;1.20;;
67191;SDS011;54120;53.504;49.426;2023-09-07T12:48:12;4.95;;;1.10;;
67191;SDS011;54120;53.504;49.426;2023-09-07T12:50:38;1.70;;;1.30;;
67191;SDS011;54120;53.504;49.426;2023-09-07T12:53:08;3.92;;;1.20;;
67191;SDS011;54120;53.504;49.426;2023-09-07T12:55:35;1.95;;;1.08;;
67191;SDS011;54120;53.504;49.426;2023-09-07T12:58:01;3.22;;;1.33;;
67191;SDS011;54120;53.504;49.426;2023-09-07T13:00:28;2.90;;;1.02;;
67191;SDS011;54120;53.504;49.426;2023-09-07T13:02:55;5.82;;;1.10;;
67191;SDS011;54120;53.504;49.426;2023-09-07T13:05:22;2.17;;;1.30;;
67191;SDS011;54120;53.504;49.426;2023-09-07T13:07:48;1.60;;;1.30;;
67191;SDS011;54120;53.504;49.426;2023-09-07T13:10:15;4.53;;;1.20;;
67191;SDS011;54120;53.504;49.426;2023-09-07T13:12:41;4.15;;;1.25;;
67191;SDS011;54120;53.504;49.426;2023-09-07T13:15:08;4.88;;;2.15;;
67191;SDS011;54120;53.504;49.426;2023-09-07T13:17:35;0.90;;;0.90;;
67191;SDS011;54120;53.504;49.426;2023-09-07T13:20:01;8.93;;;2.35;;
67191;SDS011;54120;53.504;49.426;2023-09-07T13:22:27;1.40;;;1.30;;
67191;SDS011;54120;53.504;49.426;2023-09-07T13:24:53;3.17;;;1.17;;
67191;SDS011;54120;53.504;49.426;2023-09-07T13:27:20;2.95;;;1.20;;
67191;SDS011;54120;53.504;49.426;2023-09-07T13:29:46;0.80;;;0.77;;
67191;SDS011;54120;53.504;49.426;2023-09-07T13:32:12;0.90;;;0.90;;
67191;SDS011;54120;53.504;49.426;2023-09-07T13:34:39;1.35;;;1.02;;
67191;SDS011;54120;53.504;49.426;2023-09-07T13:37:06;4.63;;;1.10;;
67191;SDS011;54120;53.504;49.426;2023-09-07T13:39:33;3.15;;;1.42;;
67191;SDS011;54120;53.504;49.426;2023-09-07T13:41:59;3.63;;;1.40;;
67191;SDS011;54120;53.504;49.426;2023-09-07T13:44:26;1.73;;;1.15;;
67191;SDS011;54120;53.504;49.426;2023-09-07T13:46:52;1.58;;;1.38;;
67191;SDS011;54120;53.504;49.426;2023-09-07T13:49:20;3.28;;;1.70;;
67191;SDS011;54120;53.504;49.426;2023-09-07T13:51:46;1.63;;;1.20;;
67191;SDS011;54120;53.504;49.426;2023-09-07T13:54:13;2.17;;;1.20;;
67191;SDS011;54120;53.504;49.426;2023-09-07T13:56:39;4.22;;;2.00;;
67191;SDS011;54120;53.504;49.426;2023-09-07T13:59:06;1.50;;;1.30;;
67191;SDS011;54120;53.504;49.426;2023-09-07T14:01:33;3.00;;;1.40;;
67191;SDS011;54120;53.504;49.426;2023-09-07T14:04:00;2.63;;;1.20;;
67191;SDS011;54120;53.504;49.426;2023-09-07T14:06:27;2.08;;;1.38;;
67191;SDS011;54120;53.504;49.426;2023-09-07T14:08:53;2.35;;;1.30;;
67191;SDS011;54120;53.504;49.426;2023-09-07T14:11:19;2.17;;;1.45;;
67191;SDS011;54120;53.504;49.426;2023-09-07T14:13:47;3.53;;;1.40;;
67191;SDS011;54120;53.504;49.426;2023-09-07T14:16:20;1.45;;;1.35;;
67191;SDS011;54120;53.504;49.426;2023-09-07T14:18:47;3.13;;;1.70;;
67191;SDS011;54120;53.504;49.426;2023-09-07T14:21:14;4.97;;;1.80;;
67191;SDS011;54120;53.504;49.426;2023-09-07T14:23:41;3.97;;;1.40;;
67191;SDS011;54120;53.504;49.426;2023-09-07T14:26:08;1.95;;;1.40;;
67191;SDS011;54120;53.504;49.426;2023-09-07T14:28:35;5.10;;;1.70;;
67191;SDS011;54120;53.504;49.426;2023-09-07T14:31:03;3.75;;;1.80;;
67191;SDS011;54120;53.504;49.426;2023-09-07T14:33:31;4.00;;;1.80;;
67191;SDS011;54120;53.504;49.426;2023-09-07T14:35:58;4.10;;;1.65;;